sensor_id;sensor_type;location;lat;lon;timestamp;P1;durP1;ratioP1;P2;durP2;ratioP2
11287;SDS011;5700;50.996;7.044;2023-09-07T00:00:55;7.00;;;3.08;;
11287;SDS011;5700;50.996;7.044;2023-09-07T00:04:00;5.93;;;3.05;;
11287;SDS011;5700;50.996;7.044;2023-09-07T00:07:03;8.13;;;3.72;;
11287;SDS011;5700;50.996;7.044;2023-09-07T00:10:05;5.63;;;3.20;;
11287;SDS011;5700;50.996;7.044;2023-09-07T00:13:07;8.50;;;3.75;;
11287;SDS011;5700;50.996;7.044;2023-09-07T00:16:10;6.93;;;3.45;;
11287;SDS011;5700;50.996;7.044;2023-09-07T00:19:12;6.28;;;3.53;;
11287;SDS011;5700;50.996;7.044;2023-09-07T00:22:13;5.90;;;3.22;;
11287;SDS011;5700;50.996;7.044;2023-09-07T00:25:15;5.90;;;3.25;;
11287;SDS011;5700;50.996;7.044;2023-09-07T00:28:16;5.32;;;3.13;;
11287;SDS011;5700;50.996;7.044;2023-09-07T00:31:19;5.10;;;3.05;;
11287;SDS011;5700;50.996;7.044;2023-09-07T00:34:21;6.25;;;3.28;;
11287;SDS011;5700;50.996;7.044;2023-09-07T00:37:22;7.47;;;3.40;;
11287;SDS011;5700;50.996;7.044;2023-09-07T00:40:24;5.65;;;3.20;;
11287;SDS011;5700;50.996;7.044;2023-09-07T00:43:26;6.85;;;3.10;;
11287;SDS011;5700;50.996;7.044;2023-09-07T00:46:29;5.70;;;3.20;;
11287;SDS011;5700;50.996;7.044;2023-09-07T00:49:31;6.28;;;3.42;;
11287;SDS011;5700;50.996;7.044;2023-09-07T00:52:32;10.02;;;3.78;;
11287;SDS011;5700;50.996;7.044;2023-09-07T00:55:35;6.00;;;3.10;;
11287;SDS011;5700;50.996;7.044;2023-09-07T00:58:36;11.32;;;3.50;;
11287;SDS011;5700;50.996;7.044;2023-09-07T01:01:40;7.30;;;3.33;;
11287;SDS011;5700;50.996;7.044;2023-09-07T01:04:42;6.93;;;3.20;;
11287;SDS011;5700;50.996;7.044;2023-09-07T01:07:45;5.70;;;3.03;;
11287;SDS011;5700;50.996;7.044;2023-09-07T01:10:48;5.70;;;3.17;;
11287;SDS011;5700;50.996;7.044;2023-09-07T01:13:49;6.60;;;3.22;;
11287;SDS011;5700;50.996;7.044;2023-09-07T01:16:53;7.60;;;3.20;;
11287;SDS011;5700;50.996;7.044;2023-09-07T01:19:55;7.22;;;3.30;;
11287;SDS011;5700;50.996;7.044;2023-09-07T01:23:01;8.30;;;3.47;;
11287;SDS011;5700;50.996;7.044;2023-09-07T01:26:03;5.30;;;3.25;;
11287;SDS011;5700;50.996;7.044;2023-09-07T01:29:04;5.78;;;3.25;;
11287;SDS011;5700;50.996;7.044;2023-09-07T01:32:06;6.78;;;3.90;;
11287;SDS011;5700;50.996;7.044;2023-09-07T01:35:09;7.13;;;3.70;;
11287;SDS011;5700;50.996;7.044;2023-09-07T01:38:14;8.85;;;3.78;;
11287;SDS011;5700;50.996;7.044;2023-09-07T01:41:15;8.30;;;4.07;;
11287;SDS011;5700;50.996;7.044;2023-09-07T01:44:16;6.35;;;3.67;;
11287;SDS011;5700;50.996;7.044;2023-09-07T01:47:18;6.22;;;3.30;;
11287;SDS011;5700;50.996;7.044;2023-09-07T01:50:19;8.63;;;3.45;;
11287;SDS011;5700;50.996;7.044;2023-09-07T01:53:22;6.05;;;3.30;;
11287;SDS011;5700;50.996;7.044;2023-09-07T01:56:24;6.30;;;3.55;;
11287;SDS011;5700;50.996;7.044;2023-09-07T01:59:26;7.70;;;3.67;;
11287;SDS011;5700;50.996;7.044;2023-09-07T02:02:28;6.05;;;3.65;;
11287;SDS011;5700;50.996;7.044;2023-09-07T02:05:30;11.13;;;4.03;;
11287;SDS011;5700;50.996;7.044;2023-09-07T02:08:34;7.40;;;3.63;;
11287;SDS011;5700;50.996;7.044;2023-09-07T02:11:35;6.40;;;3.85;;
11287;SDS011;5700;50.996;7.044;2023-09-07T02:14:38;5.43;;;3.40;;
11287;SDS011;5700;50.996;7.044;2023-09-07T02:17:40;7.65;;;3.75;;
11287;SDS011;5700;50.996;7.044;2023-09-07T02:20:44;8.23;;;4.00;;
11287;SDS011;5700;50.996;7.044;2023-09-07T02:23:47;6.53;;;3.63;;
11287;SDS011;5700;50.996;7.044;2023-09-07T02:26:49;6.32;;;3.70;;
11287;SDS011;5700;50.996;7.044;2023-09-07T02:29:50;7.95;;;3.80;;
11287;SDS011;5700;50.996;7.044;2023-09-07T02:32:52;5.97;;;3.42;;
11287;SDS011;5700;50.996;7.044;2023-09-07T02:35:53;7.50;;;3.92;;
11287;SDS011;5700;50.996;7.044;2023-09-07T02:38:58;6.80;;;3.75;;
11287;SDS011;5700;50.996;7.044;2023-09-07T02:42:00;7.88;;;3.70;;
11287;SDS011;5700;50.996;7.044;2023-09-07T02:45:01;7.28;;;3.38;;
11287;SDS011;5700;50.996;7.044;2023-09-07T02:48:04;6.80;;;3.72;;
11287;SDS011;5700;50.996;7.044;2023-09-07T02:51:06;6.25;;;3.50;;
11287;SDS011;5700;50.996;7.044;2023-09-07T02:54:09;8.40;;;3.47;;
11287;SDS011;5700;50.996;7.044;2023-09-07T02:57:11;9.80;;;4.35;;
11287;SDS011;5700;50.996;7.044;2023-09-07T03:00:13;6.15;;;3.63;;
11287;SDS011;5700;50.996;7.044;2023-09-07T03:03:17;7.97;;;3.97;;
11287;SDS011;5700;50.996;7.044;2023-09-07T03:06:18;7.97;;;4.40;;
11287;SDS011;5700;50.996;7.044;2023-09-07T03:09:21;5.30;;;3.17;;
11287;SDS011;5700;50.996;7.044;2023-09-07T03:12:23;6.60;;;3.60;;
11287;SDS011;5700;50.996;7.044;2023-09-07T03:15:25;5.53;;;3.03;;
11287;SDS011;5700;50.996;7.044;2023-09-07T03:18:27;6.50;;;3.88;;
11287;SDS011;5700;50.996;7.044;2023-09-07T03:21:29;8.02;;;3.47;;
11287;SDS011;5700;50.996;7.044;2023-09-07T03:24:32;5.97;;;3.70;;
11287;SDS011;5700;50.996;7.044;2023-09-07T03:27:33;8.27;;;3.63;;
11287;SDS011;5700;50.996;7.044;2023-09-07T03:30:35;5.90;;;3.20;;
11287;SDS011;5700;50.996;7.044;2023-09-07T03:33:36;6.45;;;3.90;;
11287;SDS011;5700;50.996;7.044;2023-09-07T03:36:39;8.45;;;3.72;;
11287;SDS011;5700;50.996;7.044;2023-09-07T03:39:42;6.68;;;3.55;;
11287;SDS011;5700;50.996;7.044;2023-09-07T03:42:44;6.28;;;3.45;;
11287;SDS011;5700;50.996;7.044;2023-09-07T03:45:46;7.75;;;3.35;;
11287;SDS011;5700;50.996;7.044;2023-09-07T03:48:48;9.45;;;3.50;;
11287;SDS011;5700;50.996;7.044;2023-09-07T03:51:50;6.85;;;3.63;;
11287;SDS011;5700;50.996;7.044;2023-09-07T03:54:53;7.15;;;3.67;;
11287;SDS011;5700;50.996;7.044;2023-09-07T03:57:55;6.28;;;3.90;;
11287;SDS011;5700;50.996;7.044;2023-09-07T04:00:58;5.47;;;3.42;;
11287;SDS011;5700;50.996;7.044;2023-09-07T04:04:00;8.32;;;3.50;;
11287;SDS011;5700;50.996;7.044;2023-09-07T04:07:02;5.75;;;3.25;;
11287;SDS011;5700;50.996;7.044;2023-09-07T04:10:06;6.68;;;3.33;;
11287;SDS011;5700;50.996;7.044;2023-09-07T04:13:08;8.07;;;4.10;;
11287;SDS011;5700;50.996;7.044;2023-09-07T04:16:10;7.32;;;4.10;;
11287;SDS011;5700;50.996;7.044;2023-09-07T04:19:11;6.38;;;3.40;;
11287;SDS011;5700;50.996;7.044;2023-09-07T04:22:13;5.85;;;2.78;;
11287;SDS011;5700;50.996;7.044;2023-09-07T04:25:16;6.35;;;3.30;;
11287;SDS011;5700;50.996;7.044;2023-09-07T04:28:17;5.68;;;3.40;;
11287;SDS011;5700;50.996;7.044;2023-09-07T04:31:19;10.32;;;4.07;;
11287;SDS011;5700;50.996;7.044;2023-09-07T04:34:21;6.60;;;3.42;;
11287;SDS011;5700;50.996;7.044;2023-09-07T04:37:23;7.32;;;3.45;;
11287;SDS011;5700;50.996;7.044;2023-09-07T04:40:27;6.25;;;3.63;;
11287;SDS011;5700;50.996;7.044;2023-09-07T04:43:28;5.53;;;3.38;;
11287;SDS011;5700;50.996;7.044;2023-09-07T04:46:30;6.55;;;3.13;;
11287;SDS011;5700;50.996;7.044;2023-09-07T04:49:31;5.40;;;3.42;;
11287;SDS011;5700;50.996;7.044;2023-09-07T04:52:33;6.53;;;3.28;;
11287;SDS011;5700;50.996;7.044;2023-09-07T04:55:38;7.25;;;3.38;;
11287;SDS011;5700;50.996;7.044;2023-09-07T04:58:39;5.40;;;3.03;;
11287;SDS011;5700;50.996;7.044;2023-09-07T05:01:41;6.18;;;3.78;;
11287;SDS011;5700;50.996;7.044;2023-09-07T05:04:43;7.22;;;3.42;;
11287;SDS011;5700;50.996;7.044;2023-09-07T05:07:45;5.68;;;3.20;;
11287;SDS011;5700;50.996;7.044;2023-09-07T05:10:48;10.10;;;3.47;;
11287;SDS011;5700;50.996;7.044;2023-09-07T05:13:50;6.43;;;3.75;;
11287;SDS011;5700;50.996;7.044;2023-09-07T05:16:51;7.60;;;3.47;;
11287;SDS011;5700;50.996;7.044;2023-09-07T05:19:53;7.40;;;3.25;;
11287;SDS011;5700;50.996;7.044;2023-09-07T05:22:54;7.68;;;3.50;;
11287;SDS011;5700;50.996;7.044;2023-09-07T05:25:58;7.68;;;3.70;;
11287;SDS011;5700;50.996;7.044;2023-09-07T05:28:59;6.07;;;3.20;;
11287;SDS011;5700;50.996;7.044;2023-09-07T05:32:01;6.50;;;3.72;;
11287;SDS011;5700;50.996;7.044;2023-09-07T05:35:02;6.85;;;3.58;;
11287;SDS011;5700;50.996;7.044;2023-09-07T05:38:04;5.95;;;3.60;;
11287;SDS011;5700;50.996;7.044;2023-09-07T05:41:08;8.00;;;3.80;;
11287;SDS011;5700;50.996;7.044;2023-09-07T05:44:09;6.72;;;3.92;;
11287;SDS011;5700;50.996;7.044;2023-09-07T05:47:10;6.65;;;3.35;;
11287;SDS011;5700;50.996;7.044;2023-09-07T05:50:12;6.57;;;4.10;;
11287;SDS011;5700;50.996;7.044;2023-09-07T05:53:13;8.57;;;4.28;;
11287;SDS011;5700;50.996;7.044;2023-09-07T05:56:16;6.38;;;3.60;;
11287;SDS011;5700;50.996;7.044;2023-09-07T05:59:17;7.38;;;3.53;;
11287;SDS011;5700;50.996;7.044;2023-09-07T06:02:20;5.70;;;3.30;;
11287;SDS011;5700;50.996;7.044;2023-09-07T06:05:22;7.05;;;3.65;;
11287;SDS011;5700;50.996;7.044;2023-09-07T06:08:23;6.90;;;3.53;;
11287;SDS011;5700;50.996;7.044;2023-09-07T06:11:27;6.45;;;3.70;;
11287;SDS011;5700;50.996;7.044;2023-09-07T06:14:30;8.77;;;4.03;;
11287;SDS011;5700;50.996;7.044;2023-09-07T06:17:31;9.55;;;4.32;;
11287;SDS011;5700;50.996;7.044;2023-09-07T06:20:33;8.60;;;4.35;;
11287;SDS011;5700;50.996;7.044;2023-09-07T06:23:35;7.07;;;3.97;;
11287;SDS011;5700;50.996;7.044;2023-09-07T06:26:38;7.60;;;4.35;;
11287;SDS011;5700;50.996;7.044;2023-09-07T06:29:39;7.80;;;3.97;;
11287;SDS011;5700;50.996;7.044;2023-09-07T06:32:41;7.38;;;3.70;;
11287;SDS011;5700;50.996;7.044;2023-09-07T06:35:43;5.93;;;3.70;;
11287;SDS011;5700;50.996;7.044;2023-09-07T06:38:45;8.27;;;4.28;;
11287;SDS011;5700;50.996;7.044;2023-09-07T06:41:48;7.22;;;3.65;;
11287;SDS011;5700;50.996;7.044;2023-09-07T06:44:50;8.48;;;3.80;;
11287;SDS011;5700;50.996;7.044;2023-09-07T06:47:52;8.82;;;3.47;;
11287;SDS011;5700;50.996;7.044;2023-09-07T06:50:54;9.48;;;3.75;;
11287;SDS011;5700;50.996;7.044;2023-09-07T06:53:55;8.25;;;4.00;;
11287;SDS011;5700;50.996;7.044;2023-09-07T06:56:58;6.97;;;4.05;;
11287;SDS011;5700;50.996;7.044;2023-09-07T06:59:59;7.55;;;4.00;;
11287;SDS011;5700;50.996;7.044;2023-09-07T07:03:01;6.63;;;3.30;;
11287;SDS011;5700;50.996;7.044;2023-09-07T07:06:02;7.25;;;3.70;;
11287;SDS011;5700;50.996;7.044;2023-09-07T07:09:04;7.78;;;3.97;;
11287;SDS011;5700;50.996;7.044;2023-09-07T07:12:08;9.60;;;4.63;;
11287;SDS011;5700;50.996;7.044;2023-09-07T07:15:09;5.20;;;3.40;;
11287;SDS011;5700;50.996;7.044;2023-09-07T07:18:11;5.28;;;3.03;;
11287;SDS011;5700;50.996;7.044;2023-09-07T07:21:13;6.25;;;3.80;;
11287;SDS011;5700;50.996;7.044;2023-09-07T07:24:15;8.65;;;3.63;;
11287;SDS011;5700;50.996;7.044;2023-09-07T07:27:19;6.00;;;3.40;;
11287;SDS011;5700;50.996;7.044;2023-09-07T07:30:20;6.82;;;4.03;;
11287;SDS011;5700;50.996;7.044;2023-09-07T07:33:22;6.57;;;3.65;;
11287;SDS011;5700;50.996;7.044;2023-09-07T07:36:23;5.38;;;3.30;;
11287;SDS011;5700;50.996;7.044;2023-09-07T07:39:25;6.82;;;3.40;;
11287;SDS011;5700;50.996;7.044;2023-09-07T07:42:28;10.63;;;4.03;;
11287;SDS011;5700;50.996;7.044;2023-09-07T07:45:30;8.40;;;3.92;;
11287;SDS011;5700;50.996;7.044;2023-09-07T07:48:36;6.25;;;3.58;;
11287;SDS011;5700;50.996;7.044;2023-09-07T07:51:38;7.65;;;3.30;;
11287;SDS011;5700;50.996;7.044;2023-09-07T07:54:39;7.13;;;3.25;;
11287;SDS011;5700;50.996;7.044;2023-09-07T07:57:42;6.45;;;3.30;;
11287;SDS011;5700;50.996;7.044;2023-09-07T08:00:44;6.93;;;3.60;;
11287;SDS011;5700;50.996;7.044;2023-09-07T08:03:47;5.57;;;2.85;;
11287;SDS011;5700;50.996;7.044;2023-09-07T08:06:49;4.88;;;2.92;;
11287;SDS011;5700;50.996;7.044;2023-09-07T08:09:54;5.05;;;2.70;;
11287;SDS011;5700;50.996;7.044;2023-09-07T08:12:57;7.28;;;3.63;;
11287;SDS011;5700;50.996;7.044;2023-09-07T08:15:58;5.35;;;3.22;;
11287;SDS011;5700;50.996;7.044;2023-09-07T08:18:59;7.07;;;3.28;;
11287;SDS011;5700;50.996;7.044;2023-09-07T08:22:01;6.53;;;3.30;;
11287;SDS011;5700;50.996;7.044;2023-09-07T08:25:03;4.85;;;2.92;;
11287;SDS011;5700;50.996;7.044;2023-09-07T08:28:07;5.18;;;2.85;;
11287;SDS011;5700;50.996;7.044;2023-09-07T08:31:08;5.13;;;2.65;;
11287;SDS011;5700;50.996;7.044;2023-09-07T08:34:10;4.85;;;2.83;;
11287;SDS011;5700;50.996;7.044;2023-09-07T08:37:13;5.03;;;3.03;;
11287;SDS011;5700;50.996;7.044;2023-09-07T08:40:14;6.15;;;2.80;;
11287;SDS011;5700;50.996;7.044;2023-09-07T08:43:18;7.38;;;2.45;;
11287;SDS011;5700;50.996;7.044;2023-09-07T08:46:21;8.00;;;2.95;;
11287;SDS011;5700;50.996;7.044;2023-09-07T08:49:24;6.18;;;2.70;;
11287;SDS011;5700;50.996;7.044;2023-09-07T08:52:26;5.15;;;2.63;;
11287;SDS011;5700;50.996;7.044;2023-09-07T08:55:27;5.00;;;2.90;;
11287;SDS011;5700;50.996;7.044;2023-09-07T08:58:30;5.05;;;2.85;;
11287;SDS011;5700;50.996;7.044;2023-09-07T09:01:32;4.88;;;2.83;;
11287;SDS011;5700;50.996;7.044;2023-09-07T09:04:33;5.68;;;2.60;;
11287;SDS011;5700;50.996;7.044;2023-09-07T09:07:35;6.22;;;2.67;;
11287;SDS011;5700;50.996;7.044;2023-09-07T09:10:37;6.38;;;2.70;;
11287;SDS011;5700;50.996;7.044;2023-09-07T09:13:41;4.60;;;2.50;;
11287;SDS011;5700;50.996;7.044;2023-09-07T09:16:47;5.22;;;2.83;;
11287;SDS011;5700;50.996;7.044;2023-09-07T09:19:50;5.25;;;2.92;;
11287;SDS011;5700;50.996;7.044;2023-09-07T09:22:52;4.18;;;2.40;;
11287;SDS011;5700;50.996;7.044;2023-09-07T09:25:54;6.80;;;2.70;;
11287;SDS011;5700;50.996;7.044;2023-09-07T09:28:59;5.57;;;2.58;;
11287;SDS011;5700;50.996;7.044;2023-09-07T09:32:01;4.53;;;2.47;;
11287;SDS011;5700;50.996;7.044;2023-09-07T09:35:05;3.72;;;2.28;;
11287;SDS011;5700;50.996;7.044;2023-09-07T09:38:06;4.32;;;2.67;;
11287;SDS011;5700;50.996;7.044;2023-09-07T09:41:08;4.30;;;2.42;;
11287;SDS011;5700;50.996;7.044;2023-09-07T09:44:12;3.10;;;2.08;;
11287;SDS011;5700;50.996;7.044;2023-09-07T09:47:13;5.00;;;2.85;;
11287;SDS011;5700;50.996;7.044;2023-09-07T09:50:15;5.13;;;2.72;;
11287;SDS011;5700;50.996;7.044;2023-09-07T09:53:17;5.88;;;2.70;;
11287;SDS011;5700;50.996;7.044;2023-09-07T09:56:20;3.97;;;2.60;;
11287;SDS011;5700;50.996;7.044;2023-09-07T09:59:24;3.65;;;2.45;;
11287;SDS011;5700;50.996;7.044;2023-09-07T10:02:26;5.93;;;2.70;;
11287;SDS011;5700;50.996;7.044;2023-09-07T10:05:27;4.97;;;2.40;;
11287;SDS011;5700;50.996;7.044;2023-09-07T10:08:29;4.10;;;2.35;;
11287;SDS011;5700;50.996;7.044;2023-09-07T10:11:32;4.68;;;2.60;;
11287;SDS011;5700;50.996;7.044;2023-09-07T10:14:39;4.03;;;2.28;;
11287;SDS011;5700;50.996;7.044;2023-09-07T10:17:40;5.18;;;2.58;;
11287;SDS011;5700;50.996;7.044;2023-09-07T10:20:50;4.25;;;2.53;;
11287;SDS011;5700;50.996;7.044;2023-09-07T10:23:52;3.88;;;2.38;;
11287;SDS011;5700;50.996;7.044;2023-09-07T10:26:56;4.65;;;2.53;;
11287;SDS011;5700;50.996;7.044;2023-09-07T10:30:02;3.65;;;2.35;;
11287;SDS011;5700;50.996;7.044;2023-09-07T10:33:18;3.58;;;2.20;;
11287;SDS011;5700;50.996;7.044;2023-09-07T10:36:21;4.53;;;2.58;;
11287;SDS011;5700;50.996;7.044;2023-09-07T10:39:23;4.90;;;2.05;;
11287;SDS011;5700;50.996;7.044;2023-09-07T10:42:25;5.05;;;2.53;;
11287;SDS011;5700;50.996;7.044;2023-09-07T10:45:28;4.10;;;2.80;;
11287;SDS011;5700;50.996;7.044;2023-09-07T10:48:30;4.93;;;2.50;;
11287;SDS011;5700;50.996;7.044;2023-09-07T10:51:32;4.90;;;2.50;;
11287;SDS011;5700;50.996;7.044;2023-09-07T10:54:33;3.90;;;2.47;;
11287;SDS011;5700;50.996;7.044;2023-09-07T10:57:41;5.43;;;2.60;;
11287;SDS011;5700;50.996;7.044;2023-09-07T11:00:44;5.13;;;2.53;;
11287;SDS011;5700;50.996;7.044;2023-09-07T11:03:46;5.35;;;2.95;;
11287;SDS011;5700;50.996;7.044;2023-09-07T11:06:47;4.72;;;2.50;;
11287;SDS011;5700;50.996;7.044;2023-09-07T11:09:51;5.05;;;2.60;;
11287;SDS011;5700;50.996;7.044;2023-09-07T11:12:53;5.25;;;2.80;;
11287;SDS011;5700;50.996;7.044;2023-09-07T11:15:56;5.45;;;2.90;;
11287;SDS011;5700;50.996;7.044;2023-09-07T11:19:01;4.55;;;2.50;;
11287;SDS011;5700;50.996;7.044;2023-09-07T11:22:04;4.13;;;2.72;;
11287;SDS011;5700;50.996;7.044;2023-09-07T11:25:06;4.35;;;2.63;;
11287;SDS011;5700;50.996;7.044;2023-09-07T11:28:08;6.30;;;3.22;;
11287;SDS011;5700;50.996;7.044;2023-09-07T11:31:13;4.45;;;2.85;;
11287;SDS011;5700;50.996;7.044;2023-09-07T11:34:15;4.97;;;2.42;;
11287;SDS011;5700;50.996;7.044;2023-09-07T11:37:17;4.35;;;2.42;;
11287;SDS011;5700;50.996;7.044;2023-09-07T11:40:19;4.40;;;2.40;;
11287;SDS011;5700;50.996;7.044;2023-09-07T11:43:20;4.07;;;2.50;;
11287;SDS011;5700;50.996;7.044;2023-09-07T11:46:24;5.05;;;2.38;;
11287;SDS011;5700;50.996;7.044;2023-09-07T11:49:26;4.00;;;2.53;;
11287;SDS011;5700;50.996;7.044;2023-09-07T11:52:27;4.07;;;2.47;;
11287;SDS011;5700;50.996;7.044;2023-09-07T11:55:29;4.95;;;2.97;;
11287;SDS011;5700;50.996;7.044;2023-09-07T11:58:30;4.80;;;2.40;;
11287;SDS011;5700;50.996;7.044;2023-09-07T12:01:33;6.05;;;2.72;;
11287;SDS011;5700;50.996;7.044;2023-09-07T12:04:34;3.53;;;2.50;;
11287;SDS011;5700;50.996;7.044;2023-09-07T12:07:37;5.22;;;3.05;;
11287;SDS011;5700;50.996;7.044;2023-09-07T12:10:39;4.78;;;2.80;;
11287;SDS011;5700;50.996;7.044;2023-09-07T12:13:41;4.50;;;2.55;;
11287;SDS011;5700;50.996;7.044;2023-09-07T12:16:44;2.95;;;2.20;;
11287;SDS011;5700;50.996;7.044;2023-09-07T12:19:46;6.93;;;2.78;;
11287;SDS011;5700;50.996;7.044;2023-09-07T12:22:47;6.72;;;2.95;;
11287;SDS011;5700;50.996;7.044;2023-09-07T12:25:49;4.60;;;2.55;;
11287;SDS011;5700;50.996;7.044;2023-09-07T12:28:51;4.40;;;2.78;;
11287;SDS011;5700;50.996;7.044;2023-09-07T12:31:55;5.55;;;2.50;;
11287;SDS011;5700;50.996;7.044;2023-09-07T12:34:57;3.92;;;2.58;;
11287;SDS011;5700;50.996;7.044;2023-09-07T12:37:58;5.55;;;2.95;;
11287;SDS011;5700;50.996;7.044;2023-09-07T12:40:59;2.97;;;2.20;;
11287;SDS011;5700;50.996;7.044;2023-09-07T12:44:01;4.93;;;2.53;;
11287;SDS011;5700;50.996;7.044;2023-09-07T12:47:04;4.47;;;2.92;;
11287;SDS011;5700;50.996;7.044;2023-09-07T12:50:06;3.95;;;2.55;;
11287;SDS011;5700;50.996;7.044;2023-09-07T12:53:08;5.05;;;2.50;;
11287;SDS011;5700;50.996;7.044;2023-09-07T12:56:10;5.68;;;2.75;;
11287;SDS011;5700;50.996;7.044;2023-09-07T12:59:12;4.55;;;2.63;;
11287;SDS011;5700;50.996;7.044;2023-09-07T13:02:15;4.10;;;2.20;;
11287;SDS011;5700;50.996;7.044;2023-09-07T13:05:17;3.95;;;2.63;;
11287;SDS011;5700;50.996;7.044;2023-09-07T13:08:18;3.67;;;2.42;;
11287;SDS011;5700;50.996;7.044;2023-09-07T13:11:20;3.90;;;2.33;;
11287;SDS011;5700;50.996;7.044;2023-09-07T13:14:21;3.97;;;2.72;;
11287;SDS011;5700;50.996;7.044;2023-09-07T13:17:24;4.95;;;2.55;;
11287;SDS011;5700;50.996;7.044;2023-09-07T13:20:26;4.70;;;2.40;;
11287;SDS011;5700;50.996;7.044;2023-09-07T13:23:27;4.28;;;2.72;;
11287;SDS011;5700;50.996;7.044;2023-09-07T13:26:29;4.68;;;2.88;;
11287;SDS011;5700;50.996;7.044;2023-09-07T13:29:30;6.97;;;2.72;;
11287;SDS011;5700;50.996;7.044;2023-09-07T13:32:34;4.65;;;2.50;;
11287;SDS011;5700;50.996;7.044;2023-09-07T13:35:35;3.95;;;2.40;;
11287;SDS011;5700;50.996;7.044;2023-09-07T13:38:37;3.67;;;2.17;;
11287;SDS011;5700;50.996;7.044;2023-09-07T13:41:41;4.15;;;2.50;;
11287;SDS011;5700;50.996;7.044;2023-09-07T13:44:42;4.47;;;2.67;;
11287;SDS011;5700;50.996;7.044;2023-09-07T13:47:48;4.85;;;2.70;;
11287;SDS011;5700;50.996;7.044;2023-09-07T13:50:50;3.88;;;2.40;;
11287;SDS011;5700;50.996;7.044;2023-09-07T13:53:52;3.50;;;2.35;;
11287;SDS011;5700;50.996;7.044;2023-09-07T13:56:53;4.68;;;2.58;;
11287;SDS011;5700;50.996;7.044;2023-09-07T13:59:54;4.80;;;2.70;;
11287;SDS011;5700;50.996;7.044;2023-09-07T14:02:57;4.68;;;2.47;;
11287;SDS011;5700;50.996;7.044;2023-09-07T14:05:58;5.20;;;2.70;;
11287;SDS011;5700;50.996;7.044;2023-09-07T14:09:00;6.40;;;2.50;;
11287;SDS011;5700;50.996;7.044;2023-09-07T14:12:02;4.95;;;2.47;;
11287;SDS011;5700;50.996;7.044;2023-09-07T14:15:04;4.78;;;2.58;;
11287;SDS011;5700;50.996;7.044;2023-09-07T14:18:07;5.35;;;2.88;;
11287;SDS011;5700;50.996;7.044;2023-09-07T14:21:09;5.70;;;2.33;;
11287;SDS011;5700;50.996;7.044;2023-09-07T14:24:10;4.28;;;2.40;;
11287;SDS011;5700;50.996;7.044;2023-09-07T14:27:12;5.03;;;2.90;;
11287;SDS011;5700;50.996;7.044;2023-09-07T14:30:13;4.47;;;2.50;;
11287;SDS011;5700;50.996;7.044;2023-09-07T14:33:16;5.65;;;2.67;;
11287;SDS011;5700;50.996;7.044;2023-09-07T14:36:18;6.72;;;2.50;;
11287;SDS011;5700;50.996;7.044;2023-09-07T14:39:19;4.13;;;2.50;;
11287;SDS011;5700;50.996;7.044;2023-09-07T14:42:23;3.45;;;2.40;;
11287;SDS011;5700;50.996;7.044;2023-09-07T14:45:25;6.07;;;2.88;;
11287;SDS011;5700;50.996;7.044;2023-09-07T14:48:28;5.45;;;2.40;;
11287;SDS011;5700;50.996;7.044;2023-09-07T14:51:30;4.22;;;2.42;;
11287;SDS011;5700;50.996;7.044;2023-09-07T14:54:31;4.38;;;2.30;;
11287;SDS011;5700;50.996;7.044;2023-09-07T14:57:33;3.42;;;2.30;;
11287;SDS011;5700;50.996;7.044;2023-09-07T15:00:34;3.85;;;2.33;;
11287;SDS011;5700;50.996;7.044;2023-09-07T15:03:37;4.53;;;2.60;;
11287;SDS011;5700;50.996;7.044;2023-09-07T15:06:40;3.55;;;2.13;;
11287;SDS011;5700;50.996;7.044;2023-09-07T15:09:42;4.53;;;2.13;;
11287;SDS011;5700;50.996;7.044;2023-09-07T15:12:43;7.35;;;2.65;;
11287;SDS011;5700;50.996;7.044;2023-09-07T15:15:45;4.70;;;2.20;;
11287;SDS011;5700;50.996;7.044;2023-09-07T15:18:48;4.72;;;2.60;;
11287;SDS011;5700;50.996;7.044;2023-09-07T15:21:51;4.80;;;2.55;;
11287;SDS011;5700;50.996;7.044;2023-09-07T15:24:52;4.13;;;2.28;;
11287;SDS011;5700;50.996;7.044;2023-09-07T15:27:55;4.68;;;2.15;;
11287;SDS011;5700;50.996;7.044;2023-09-07T15:30:57;7.75;;;2.75;;
11287;SDS011;5700;50.996;7.044;2023-09-07T15:34:00;3.55;;;2.25;;
11287;SDS011;5700;50.996;7.044;2023-09-07T15:37:03;4.20;;;2.33;;
11287;SDS011;5700;50.996;7.044;2023-09-07T15:40:04;4.07;;;2.05;;
11287;SDS011;5700;50.996;7.044;2023-09-07T15:43:06;4.63;;;2.13;;
11287;SDS011;5700;50.996;7.044;2023-09-07T15:46:08;7.90;;;2.50;;
11287;SDS011;5700;50.996;7.044;2023-09-07T15:49:12;4.10;;;2.28;;
11287;SDS011;5700;50.996;7.044;2023-09-07T15:52:17;4.90;;;2.60;;
11287;SDS011;5700;50.996;7.044;2023-09-07T15:55:18;4.22;;;2.33;;
11287;SDS011;5700;50.996;7.044;2023-09-07T15:58:20;4.22;;;2.30;;
11287;SDS011;5700;50.996;7.044;2023-09-07T16:01:21;7.18;;;2.47;;
11287;SDS011;5700;50.996;7.044;2023-09-07T16:04:25;4.18;;;2.08;;
11287;SDS011;5700;50.996;7.044;2023-09-07T16:07:26;5.68;;;2.95;;
11287;SDS011;5700;50.996;7.044;2023-09-07T16:10:28;5.63;;;2.30;;
11287;SDS011;5700;50.996;7.044;2023-09-07T16:13:30;3.67;;;2.30;;
11287;SDS011;5700;50.996;7.044;2023-09-07T16:16:31;4.85;;;2.35;;
11287;SDS011;5700;50.996;7.044;2023-09-07T16:19:35;4.15;;;2.40;;
11287;SDS011;5700;50.996;7.044;2023-09-07T16:22:36;3.47;;;2.20;;
11287;SDS011;5700;50.996;7.044;2023-09-07T16:25:38;4.15;;;2.25;;
11287;SDS011;5700;50.996;7.044;2023-09-07T16:28:40;4.30;;;2.60;;
11287;SDS011;5700;50.996;7.044;2023-09-07T16:31:42;4.25;;;2.30;;
11287;SDS011;5700;50.996;7.044;2023-09-07T16:34:44;5.82;;;2.60;;
11287;SDS011;5700;50.996;7.044;2023-09-07T16:37:46;4.97;;;2.95;;
11287;SDS011;5700;50.996;7.044;2023-09-07T16:40:48;4.38;;;2.60;;
11287;SDS011;5700;50.996;7.044;2023-09-07T16:43:49;4.28;;;2.40;;
11287;SDS011;5700;50.996;7.044;2023-09-07T16:46:51;4.55;;;2.05;;
11287;SDS011;5700;50.996;7.044;2023-09-07T16:49:53;6.07;;;2.70;;
11287;SDS011;5700;50.996;7.044;2023-09-07T16:52:55;3.47;;;2.50;;
11287;SDS011;5700;50.996;7.044;2023-09-07T16:55:57;4.78;;;2.38;;
11287;SDS011;5700;50.996;7.044;2023-09-07T16:58:58;4.88;;;2.50;;
11287;SDS011;5700;50.996;7.044;2023-09-07T17:02:00;4.30;;;2.55;;
11287;SDS011;5700;50.996;7.044;2023-09-07T17:05:02;4.07;;;2.30;;
11287;SDS011;5700;50.996;7.044;2023-09-07T17:08:04;6.05;;;2.90;;
11287;SDS011;5700;50.996;7.044;2023-09-07T17:11:07;5.78;;;2.50;;
11287;SDS011;5700;50.996;7.044;2023-09-07T17:14:09;7.35;;;2.75;;
11287;SDS011;5700;50.996;7.044;2023-09-07T17:17:11;5.88;;;2.47;;
11287;SDS011;5700;50.996;7.044;2023-09-07T17:20:13;4.00;;;2.22;;
11287;SDS011;5700;50.996;7.044;2023-09-07T17:23:15;6.00;;;2.45;;
11287;SDS011;5700;50.996;7.044;2023-09-07T17:26:17;5.00;;;2.60;;
11287;SDS011;5700;50.996;7.044;2023-09-07T17:29:18;5.05;;;2.38;;
11287;SDS011;5700;50.996;7.044;2023-09-07T17:32:20;5.50;;;2.30;;
11287;SDS011;5700;50.996;7.044;2023-09-07T17:35:23;5.72;;;2.70;;
11287;SDS011;5700;50.996;7.044;2023-09-07T17:38:25;6.38;;;2.95;;
11287;SDS011;5700;50.996;7.044;2023-09-07T17:41:27;5.07;;;2.97;;
11287;SDS011;5700;50.996;7.044;2023-09-07T17:44:28;3.30;;;2.22;;
11287;SDS011;5700;50.996;7.044;2023-09-07T17:47:30;5.60;;;2.65;;
11287;SDS011;5700;50.996;7.044;2023-09-07T17:50:32;6.07;;;2.50;;
11287;SDS011;5700;50.996;7.044;2023-09-07T17:53:34;6.10;;;2.83;;
11287;SDS011;5700;50.996;7.044;2023-09-07T17:56:36;5.18;;;2.72;;
11287;SDS011;5700;50.996;7.044;2023-09-07T17:59:38;7.47;;;3.35;;
11287;SDS011;5700;50.996;7.044;2023-09-07T18:02:39;10.27;;;2.78;;
11287;SDS011;5700;50.996;7.044;2023-09-07T18:05:42;6.95;;;2.85;;
11287;SDS011;5700;50.996;7.044;2023-09-07T18:08:44;8.60;;;3.03;;
11287;SDS011;5700;50.996;7.044;2023-09-07T18:11:45;5.07;;;3.05;;
11287;SDS011;5700;50.996;7.044;2023-09-07T18:14:47;8.05;;;2.75;;
11287;SDS011;5700;50.996;7.044;2023-09-07T18:17:49;5.13;;;2.83;;
11287;SDS011;5700;50.996;7.044;2023-09-07T18:20:52;5.07;;;2.72;;
11287;SDS011;5700;50.996;7.044;2023-09-07T18:23:54;4.47;;;2.60;;
11287;SDS011;5700;50.996;7.044;2023-09-07T18:26:55;8.65;;;3.35;;
11287;SDS011;5700;50.996;7.044;2023-09-07T18:29:57;6.22;;;3.40;;
11287;SDS011;5700;50.996;7.044;2023-09-07T18:33:00;7.43;;;3.90;;